createdAt,value
2018-05-23T00:00:35.447Z,0.00
2018-05-23T00:01:35.677Z,0.00
2018-05-23T00:02:35.907Z,0.00
2018-05-23T00:03:36.141Z,0.00
2018-05-23T00:04:36.377Z,0.00
2018-05-23T00:05:36.593Z,0.00
2018-05-23T00:06:36.827Z,0.00
2018-05-23T00:07:37.052Z,0.00
2018-05-23T00:08:37.281Z,0.00
2018-05-23T00:09:37.513Z,0.00
2018-05-23T00:10:37.741Z,0.00
2018-05-23T00:11:37.963Z,0.00
2018-05-23T00:12:38.204Z,0.00
2018-05-23T00:13:38.438Z,0.00
2018-05-23T00:14:38.669Z,0.00
2018-05-23T00:15:38.900Z,0.00
2018-05-23T00:16:39.118Z,0.00
2018-05-23T00:17:39.347Z,0.00
2018-05-23T00:18:39.576Z,0.00
2018-05-23T00:19:39.837Z,0.00
2018-05-23T00:20:40.024Z,0.00
2018-05-23T00:21:40.246Z,0.00
2018-05-23T00:22:40.476Z,0.00
2018-05-23T00:23:40.709Z,0.00
2018-05-23T00:24:40.940Z,0.00
2018-05-23T00:25:41.179Z,0.00
2018-05-23T00:26:41.407Z,0.00
2018-05-23T00:27:41.629Z,0.00
2018-05-23T00:28:41.855Z,0.00
2018-05-23T00:29:42.086Z,0.00
2018-05-23T00:30:42.317Z,0.00
2018-05-23T00:31:42.547Z,0.00
2018-05-23T00:32:42.772Z,0.00
2018-05-23T00:33:43.002Z,0.00
2018-05-23T00:34:43.229Z,0.00
2018-05-23T00:35:43.468Z,0.00
2018-05-23T00:36:43.700Z,0.00
2018-05-23T00:37:43.925Z,0.00
2018-05-23T00:38:44.153Z,0.00
2018-05-23T00:39:44.385Z,0.00
2018-05-23T00:40:44.618Z,0.00
2018-05-23T00:41:44.847Z,0.00
2018-05-23T00:42:45.076Z,0.00
2018-05-23T00:43:45.305Z,0.00
2018-05-23T00:44:45.534Z,0.00
2018-05-23T00:45:45.769Z,0.00
2018-05-23T00:46:45.994Z,0.00
2018-05-23T00:47:46.222Z,0.00
2018-05-23T00:48:46.455Z,0.00
2018-05-23T00:49:46.686Z,0.00
2018-05-23T00:50:46.919Z,0.00
2018-05-23T00:51:47.142Z,0.00
2018-05-23T00:52:47.373Z,0.00
2018-05-23T00:53:47.601Z,0.00
2018-05-23T00:54:47.825Z,0.00
2018-05-23T00:55:48.057Z,0.00
2018-05-23T00:56:48.286Z,0.00
2018-05-23T00:57:48.527Z,0.00
2018-05-23T00:58:48.768Z,0.00
2018-05-23T00:59:48.973Z,0.00
2018-05-23T01:00:49.189Z,0.00
2018-05-23T01:01:49.423Z,0.00
2018-05-23T01:02:49.657Z,0.00
2018-05-23T01:03:49.890Z,0.00
2018-05-23T01:04:50.113Z,0.00
2018-05-23T01:05:50.347Z,0.00
2018-05-23T01:06:50.573Z,0.00
2018-05-23T01:07:50.797Z,0.00
2018-05-23T01:08:51.041Z,0.00
2018-05-23T01:09:51.261Z,0.00
2018-05-23T01:10:51.490Z,0.00
2018-05-23T01:11:51.724Z,0.00
2018-05-23T01:12:51.942Z,0.00
2018-05-23T01:13:52.222Z,0.00
2018-05-23T01:14:52.404Z,0.00
2018-05-23T01:15:52.632Z,0.00
2018-05-23T01:16:52.871Z,0.00
2018-05-23T01:17:53.092Z,0.00
2018-05-23T01:18:53.325Z,0.00
2018-05-23T01:19:53.554Z,0.00
2018-05-23T01:20:53.781Z,0.00
2018-05-23T01:21:54.093Z,0.00
2018-05-23T01:22:54.239Z,0.00
2018-05-23T01:23:54.468Z,0.00
2018-05-23T01:24:54.692Z,0.00
2018-05-23T01:25:54.923Z,0.00
2018-05-23T01:26:55.154Z,0.00
2018-05-23T01:27:55.382Z,0.00
2018-05-23T01:28:55.617Z,0.00
2018-05-23T01:29:55.849Z,0.00
2018-05-23T01:30:56.073Z,0.00
2018-05-23T01:31:56.307Z,0.00
2018-05-23T01:32:56.533Z,0.00
2018-05-23T01:33:56.769Z,0.00
2018-05-23T01:34:56.994Z,0.00
2018-05-23T01:35:57.222Z,0.00
2018-05-23T01:36:57.462Z,0.00
2018-05-23T01:37:57.689Z,0.00
2018-05-23T01:38:57.919Z,0.00
2018-05-23T01:39:58.139Z,0.00
2018-05-23T01:40:58.367Z,0.00
2018-05-23T01:41:58.598Z,0.00
2018-05-23T01:42:58.814Z,0.00
2018-05-23T01:43:59.054Z,0.00
2018-05-23T01:44:59.275Z,0.00
2018-05-23T01:45:59.504Z,0.00
2018-05-23T01:46:59.728Z,0.00
2018-05-23T01:47:59.960Z,0.00
2018-05-23T01:49:00.188Z,0.00
2018-05-23T01:50:00.416Z,0.00
2018-05-23T01:51:00.649Z,0.00
2018-05-23T01:52:00.879Z,0.00
2018-05-23T01:53:01.115Z,0.00
2018-05-23T01:54:01.344Z,0.00
2018-05-23T01:55:01.574Z,0.00
2018-05-23T01:56:01.811Z,0.00
2018-05-23T01:57:02.041Z,0.00
2018-05-23T01:58:02.262Z,0.00
2018-05-23T01:59:02.495Z,0.00
2018-05-23T02:00:02.723Z,0.00
2018-05-23T02:01:02.957Z,0.00
2018-05-23T02:02:03.183Z,0.00
2018-05-23T02:03:03.411Z,0.00
2018-05-23T02:04:03.647Z,0.00
2018-05-23T02:05:03.877Z,0.00
2018-05-23T02:06:04.108Z,0.00
2018-05-23T02:07:04.334Z,0.00
2018-05-23T02:08:04.568Z,0.00
2018-05-23T02:09:04.798Z,0.00
2018-05-23T02:10:05.028Z,0.00
2018-05-23T02:11:05.259Z,0.00
2018-05-23T02:12:05.494Z,0.00
2018-05-23T02:13:05.721Z,0.00
2018-05-23T02:14:05.950Z,0.00
2018-05-23T02:15:06.182Z,0.00
2018-05-23T02:16:06.407Z,0.00
2018-05-23T02:17:06.641Z,0.00
2018-05-23T02:18:06.869Z,0.00
2018-05-23T02:19:07.096Z,0.00
2018-05-23T02:20:07.328Z,0.00
2018-05-23T02:21:07.556Z,0.00
2018-05-23T02:22:07.786Z,0.00
2018-05-23T02:23:08.015Z,0.00
2018-05-23T02:24:08.251Z,0.00
2018-05-23T02:25:08.481Z,0.00
2018-05-23T02:26:08.711Z,0.00
2018-05-23T02:27:08.939Z,0.00
2018-05-23T02:28:09.178Z,0.00
2018-05-23T02:29:09.399Z,0.00
2018-05-23T02:30:09.631Z,0.00
2018-05-23T02:31:09.861Z,0.00
2018-05-23T02:32:10.086Z,0.00
2018-05-23T02:33:10.315Z,0.00
2018-05-23T02:34:10.545Z,0.00
2018-05-23T02:35:10.782Z,0.00
2018-05-23T02:36:11.000Z,0.00
2018-05-23T02:37:11.225Z,0.00
2018-05-23T02:38:11.458Z,0.00
2018-05-23T02:39:11.689Z,0.00
2018-05-23T02:40:11.915Z,0.00
2018-05-23T02:41:12.141Z,0.00
2018-05-23T02:42:12.373Z,0.00
2018-05-23T02:43:12.606Z,0.00
2018-05-23T02:44:12.834Z,0.00
2018-05-23T02:45:13.067Z,0.00
2018-05-23T02:46:13.296Z,0.00
2018-05-23T02:47:13.558Z,4.00
2018-05-23T02:48:13.757Z,4.00
2018-05-23T02:49:13.979Z,0.00
2018-05-23T02:50:14.209Z,0.00
2018-05-23T02:51:14.446Z,4.00
2018-05-23T02:52:14.681Z,4.00
2018-05-23T02:53:14.906Z,0.00
2018-05-23T02:54:15.142Z,4.00
2018-05-23T02:55:15.369Z,4.00
2018-05-23T02:56:15.608Z,4.00
2018-05-23T02:57:15.843Z,8.00
2018-05-23T02:58:16.068Z,4.00
2018-05-23T02:59:16.301Z,4.00
2018-05-23T03:00:16.541Z,8.00
2018-05-23T03:01:16.760Z,12.00
2018-05-23T03:02:16.989Z,8.00
2018-05-23T03:03:17.219Z,12.00
2018-05-23T03:04:17.450Z,16.00
2018-05-23T03:05:17.680Z,16.00
2018-05-23T03:06:17.911Z,16.00
2018-05-23T03:07:18.142Z,20.00
2018-05-23T03:08:18.379Z,24.00
2018-05-23T03:09:18.603Z,28.00
2018-05-23T03:10:18.834Z,28.00
2018-05-23T03:11:19.065Z,36.00
2018-05-23T03:12:19.295Z,40.00
2018-05-23T03:13:19.526Z,48.00
2018-05-23T03:14:19.757Z,52.00
2018-05-23T03:15:19.974Z,60.00
2018-05-23T03:16:20.197Z,68.00
2018-05-23T03:17:20.434Z,76.00
2018-05-23T03:18:20.664Z,84.00
2018-05-23T03:19:20.895Z,88.00
2018-05-23T03:20:21.142Z,92.00
2018-05-23T03:21:21.342Z,96.00
2018-05-23T03:22:21.574Z,104.00
2018-05-23T03:23:21.803Z,116.00
2018-05-23T03:24:22.035Z,132.00
2018-05-23T03:25:22.267Z,148.00
2018-05-23T03:26:22.499Z,160.00
2018-05-23T03:27:22.731Z,176.00
2018-05-23T03:28:22.962Z,188.00
2018-05-23T03:29:23.196Z,204.00
2018-05-23T03:30:23.432Z,220.00
2018-05-23T03:31:23.647Z,236.00
2018-05-23T03:32:23.873Z,256.00
2018-05-23T03:33:24.115Z,276.00
2018-05-23T03:34:24.345Z,300.00
2018-05-23T03:35:24.572Z,328.00
2018-05-23T03:36:24.803Z,360.00
2018-05-23T03:37:25.031Z,396.00
2018-05-23T03:38:25.263Z,432.00
2018-05-23T03:39:25.493Z,468.00
2018-05-23T03:40:25.724Z,504.00
2018-05-23T03:41:25.956Z,532.00
2018-05-23T03:42:26.184Z,560.00
2018-05-23T03:43:26.415Z,580.00
2018-05-23T03:44:26.647Z,604.00
2018-05-23T03:45:26.882Z,632.00
2018-05-23T03:46:27.124Z,660.00
2018-05-23T03:47:27.344Z,684.00
2018-05-23T03:48:27.572Z,704.00
2018-05-23T03:49:27.803Z,724.00
2018-05-23T03:50:28.041Z,752.00
2018-05-23T03:51:28.264Z,784.00
2018-05-23T03:52:28.496Z,812.00
2018-05-23T03:53:28.730Z,844.00
2018-05-23T03:54:28.961Z,876.00
2018-05-23T03:55:29.198Z,912.00
2018-05-23T03:56:29.436Z,952.00
2018-05-23T03:57:29.656Z,988.00
2018-05-23T03:58:29.877Z,1032.00
2018-05-23T03:59:30.111Z,1068.00
2018-05-23T04:00:30.338Z,1112.00
2018-05-23T04:01:30.566Z,1164.00
2018-05-23T04:02:30.814Z,1244.00
2018-05-23T04:03:31.038Z,1336.00
2018-05-23T04:04:31.265Z,1440.00
2018-05-23T04:05:31.497Z,1564.00
2018-05-23T04:06:31.733Z,1700.00
2018-05-23T04:07:31.961Z,1856.00
2018-05-23T04:08:32.179Z,2032.00
2018-05-23T04:09:32.407Z,2240.00
2018-05-23T04:10:32.638Z,2488.00
2018-05-23T04:11:32.870Z,2724.00
2018-05-23T04:12:33.101Z,2860.00
2018-05-23T04:13:33.338Z,2912.00
2018-05-23T04:14:33.556Z,2924.00
2018-05-23T04:15:33.789Z,3020.00
2018-05-23T04:16:34.024Z,3140.00
2018-05-23T04:17:34.251Z,3260.00
2018-05-23T04:18:34.494Z,3352.00
2018-05-23T04:19:34.713Z,3424.00
2018-05-23T04:20:34.933Z,3484.00
2018-05-23T04:21:35.166Z,3536.00
2018-05-23T04:22:35.398Z,3584.00
2018-05-23T04:23:35.629Z,3632.00
2018-05-23T04:24:35.860Z,3684.00
2018-05-23T04:25:36.102Z,3732.00
2018-05-23T04:26:36.306Z,3796.00
2018-05-23T04:27:36.538Z,3872.00
2018-05-23T04:28:36.765Z,3952.00
2018-05-23T04:29:36.996Z,4056.00
2018-05-23T04:30:37.236Z,4156.00
2018-05-23T04:31:37.469Z,4236.00
2018-05-23T04:32:37.678Z,4304.00
2018-05-23T04:33:37.935Z,4388.00
2018-05-23T04:34:38.132Z,4464.00
2018-05-23T04:35:38.373Z,4548.00
2018-05-23T04:36:38.620Z,4636.00
2018-05-23T04:37:38.833Z,4704.00
2018-05-23T04:38:39.064Z,4744.00
2018-05-23T04:39:39.299Z,4724.00
2018-05-23T04:40:39.534Z,4636.00
2018-05-23T04:41:39.765Z,4480.00
2018-05-23T04:42:40.000Z,4324.00
2018-05-23T04:43:40.238Z,4200.00
2018-05-23T04:44:40.482Z,4128.00
2018-05-23T04:45:40.693Z,4092.00
2018-05-23T04:46:40.923Z,4072.00
2018-05-23T04:47:41.147Z,4048.00
2018-05-23T04:48:41.394Z,4036.00
2018-05-23T04:49:41.621Z,4016.00
2018-05-23T04:50:41.851Z,3992.00
2018-05-23T04:51:42.097Z,3972.00
2018-05-23T04:52:42.312Z,3952.00
2018-05-23T04:53:42.544Z,3964.00
2018-05-23T04:54:42.772Z,4012.00
2018-05-23T04:55:42.990Z,4044.00
2018-05-23T04:56:43.226Z,4024.00
2018-05-23T04:57:43.456Z,3972.00
2018-05-23T04:58:43.690Z,3872.00
2018-05-23T04:59:43.920Z,3740.00
2018-05-23T05:00:44.154Z,3620.00
2018-05-23T05:01:44.381Z,3552.00
2018-05-23T05:02:44.616Z,3512.00
2018-05-23T05:03:44.850Z,3504.00
2018-05-23T05:04:45.075Z,3504.00
2018-05-23T05:05:45.305Z,3516.00
2018-05-23T05:06:45.538Z,3540.00
2018-05-23T05:07:45.769Z,3576.00
2018-05-23T05:08:46.003Z,3640.00
2018-05-23T05:09:46.231Z,3724.00
2018-05-23T05:10:46.459Z,3784.00
2018-05-23T05:11:46.689Z,3816.00
2018-05-23T05:12:46.928Z,3820.00
2018-05-23T05:13:47.236Z,3860.00
2018-05-23T05:14:47.387Z,3928.00
2018-05-23T05:15:47.619Z,3996.00
2018-05-23T05:16:47.850Z,4064.00
2018-05-23T05:17:48.095Z,4124.00
2018-05-23T05:18:48.313Z,4200.00
2018-05-23T05:19:48.547Z,4252.00
2018-05-23T05:20:48.782Z,4284.00
2018-05-23T05:21:49.013Z,4288.00
2018-05-23T05:22:49.242Z,4280.00
2018-05-23T05:23:49.471Z,4248.00
2018-05-23T05:24:49.778Z,4212.00
2018-05-23T05:25:49.936Z,4176.00
2018-05-23T05:26:50.167Z,4140.00
2018-05-23T05:27:50.404Z,4116.00
2018-05-23T05:28:50.630Z,4104.00
2018-05-23T05:29:50.864Z,4104.00
2018-05-23T05:30:51.096Z,4100.00
2018-05-23T05:31:51.417Z,4100.00
2018-05-23T05:32:51.562Z,4100.00
2018-05-23T05:33:51.799Z,4100.00
2018-05-23T05:34:52.028Z,4112.00
2018-05-23T05:35:52.265Z,4128.00
2018-05-23T05:36:52.492Z,4152.00
2018-05-23T05:37:52.726Z,4188.00
2018-05-23T05:38:52.957Z,4220.00
2018-05-23T05:39:53.178Z,4260.00
2018-05-23T05:40:53.407Z,4288.00
2018-05-23T05:41:53.642Z,4312.00
2018-05-23T05:42:53.893Z,4328.00
2018-05-23T05:43:54.104Z,4336.00
2018-05-23T05:44:54.343Z,4336.00
2018-05-23T05:45:54.562Z,4328.00
2018-05-23T05:46:54.864Z,4320.00
2018-05-23T05:47:55.025Z,4324.00
2018-05-23T05:48:55.247Z,4340.00
2018-05-23T05:49:55.500Z,4360.00
2018-05-23T05:50:55.741Z,4384.00
2018-05-23T05:51:55.954Z,4404.00
2018-05-23T05:52:56.193Z,4432.00
2018-05-23T05:53:56.413Z,4468.00
2018-05-23T05:54:56.644Z,4508.00
2018-05-23T05:55:56.871Z,4552.00
2018-05-23T05:56:57.106Z,4612.00
2018-05-23T05:57:57.336Z,4688.00
2018-05-23T05:58:57.569Z,4768.00
2018-05-23T05:59:57.802Z,4844.00
2018-05-23T06:00:58.032Z,4924.00
2018-05-23T06:01:58.306Z,4988.00
2018-05-23T06:02:58.504Z,5044.00
2018-05-23T06:03:58.738Z,5100.00
2018-05-23T06:04:58.967Z,5124.00
2018-05-23T06:05:59.206Z,5152.00
2018-05-23T06:06:59.436Z,5200.00
2018-05-23T06:07:59.667Z,5284.00
2018-05-23T06:08:59.897Z,5360.00
2018-05-23T06:10:00.172Z,5440.00
2018-05-23T06:11:00.362Z,5484.00
2018-05-23T06:12:00.593Z,5552.00
2018-05-23T06:13:00.828Z,5624.00
2018-05-23T06:14:01.053Z,5708.00
2018-05-23T06:15:01.285Z,5776.00
2018-05-23T06:16:01.516Z,5860.00
2018-05-23T06:17:01.744Z,5928.00
2018-05-23T06:18:01.969Z,6016.00
2018-05-23T06:19:02.200Z,6092.00
2018-05-23T06:20:02.430Z,6172.00
2018-05-23T06:21:02.651Z,6252.00
2018-05-23T06:22:02.889Z,6336.00
2018-05-23T06:23:03.119Z,6436.00
2018-05-23T06:24:03.347Z,6528.00
2018-05-23T06:25:03.586Z,6652.00
2018-05-23T06:26:03.813Z,6808.00
2018-05-23T06:27:04.041Z,7028.00
2018-05-23T06:28:04.270Z,7172.00
2018-05-23T06:29:04.504Z,7340.00
2018-05-23T06:30:04.735Z,7572.00
2018-05-23T06:31:04.974Z,7776.00
2018-05-23T06:32:05.205Z,7972.00
2018-05-23T06:33:05.437Z,8148.00
2018-05-23T06:34:05.670Z,8556.00
2018-05-23T06:35:05.897Z,9004.00
2018-05-23T06:36:06.133Z,8856.00
2018-05-23T06:37:06.367Z,8976.00
2018-05-23T06:38:06.603Z,9136.00
2018-05-23T06:39:06.832Z,9108.00
2018-05-23T06:40:07.063Z,9224.00
2018-05-23T06:41:07.296Z,9340.00
2018-05-23T06:42:07.528Z,9564.00
2018-05-23T06:43:07.761Z,9916.00
2018-05-23T06:44:08.003Z,10084.00
2018-05-23T06:45:08.225Z,10236.00
2018-05-23T06:46:08.456Z,10536.00
2018-05-23T06:47:08.690Z,10516.00
2018-05-23T06:48:08.922Z,10664.00
2018-05-23T06:49:09.155Z,10612.00
2018-05-23T06:50:09.430Z,10336.00
2018-05-23T06:51:09.692Z,10284.00
2018-05-23T06:52:09.861Z,10256.00
2018-05-23T06:53:10.105Z,10288.00
2018-05-23T06:54:10.322Z,10332.00
2018-05-23T06:55:10.556Z,10376.00
2018-05-23T06:56:10.791Z,10428.00
2018-05-23T06:57:11.025Z,10460.00
2018-05-23T06:58:11.258Z,10524.00
2018-05-23T06:59:11.487Z,10612.00
2018-05-23T07:00:11.722Z,10792.00
2018-05-23T07:01:11.954Z,10824.00
2018-05-23T07:02:12.187Z,10892.00
2018-05-23T07:03:12.432Z,10888.00
2018-05-23T07:04:12.653Z,10812.00
2018-05-23T07:05:12.887Z,10668.00
2018-05-23T07:06:13.118Z,10512.00
2018-05-23T07:07:13.352Z,10360.00
2018-05-23T07:08:13.587Z,10240.00
2018-05-23T07:09:13.821Z,10180.00
2018-05-23T07:10:14.058Z,10188.00
2018-05-23T07:11:14.340Z,10232.00
2018-05-23T07:12:14.526Z,10296.00
2018-05-23T07:13:14.763Z,10388.00
2018-05-23T07:14:14.995Z,10472.00
2018-05-23T07:15:15.231Z,10520.00
2018-05-23T07:16:15.462Z,10544.00
2018-05-23T07:17:15.696Z,10560.00
2018-05-23T07:18:15.929Z,10536.00
2018-05-23T07:19:16.169Z,10464.00
2018-05-23T07:20:16.402Z,10384.00
2018-05-23T07:21:16.632Z,10292.00
2018-05-23T07:22:16.868Z,10188.00
2018-05-23T07:23:17.112Z,10068.00
2018-05-23T07:24:17.342Z,9952.00
2018-05-23T07:25:17.583Z,9904.00
2018-05-23T07:26:17.811Z,9940.00
2018-05-23T07:27:18.043Z,10096.00
2018-05-23T07:28:18.278Z,10336.00
2018-05-23T07:29:18.510Z,10648.00
2018-05-23T07:30:18.743Z,11052.00
2018-05-23T07:31:18.970Z,13280.00
2018-05-23T07:32:19.203Z,11892.00
2018-05-23T07:33:19.441Z,12684.00
2018-05-23T07:34:19.667Z,12088.00
2018-05-23T07:35:19.906Z,12484.00
2018-05-23T07:36:20.148Z,12212.00
2018-05-23T07:37:20.379Z,12528.00
2018-05-23T07:38:20.702Z,12716.00
2018-05-23T07:39:20.851Z,12924.00
2018-05-23T07:40:21.083Z,13056.00
2018-05-23T07:41:21.315Z,13020.00
2018-05-23T07:42:21.549Z,12856.00
2018-05-23T07:43:21.792Z,12696.00
2018-05-23T07:44:22.016Z,11908.00
2018-05-23T07:45:22.252Z,12068.00
2018-05-23T07:46:22.481Z,12636.00
2018-05-23T07:47:22.717Z,11956.00
2018-05-23T07:48:22.949Z,11516.00
2018-05-23T07:49:23.181Z,11024.00
2018-05-23T07:50:23.418Z,10412.00
2018-05-23T07:51:23.657Z,10360.00
2018-05-23T07:52:23.915Z,10224.00
2018-05-23T07:53:24.128Z,9816.00
2018-05-23T07:54:24.360Z,9580.00
2018-05-23T07:55:24.591Z,9512.00
2018-05-23T07:56:24.830Z,9236.00
2018-05-23T07:57:25.068Z,9004.00
2018-05-23T07:58:25.305Z,8836.00
2018-05-23T07:59:25.541Z,8780.00
2018-05-23T08:00:25.768Z,9008.00
2018-05-23T08:01:26.003Z,9292.00
2018-05-23T08:02:26.238Z,9360.00
2018-05-23T08:03:26.478Z,9440.00
2018-05-23T08:04:26.712Z,9760.00
2018-05-23T08:05:26.947Z,9904.00
2018-05-23T08:06:27.175Z,10132.00
2018-05-23T08:07:27.414Z,10316.00
2018-05-23T08:08:27.646Z,10072.00
2018-05-23T08:09:27.881Z,10160.00
2018-05-23T08:10:28.117Z,10152.00
2018-05-23T08:11:28.351Z,10164.00
2018-05-23T08:12:28.587Z,10276.00
2018-05-23T08:13:28.825Z,10284.00
2018-05-23T08:14:29.058Z,10340.00
2018-05-23T08:15:29.291Z,10408.00
2018-05-23T08:16:29.529Z,10436.00
2018-05-23T08:17:29.764Z,10304.00
2018-05-23T08:18:29.997Z,10228.00
2018-05-23T08:19:30.232Z,10240.00
2018-05-23T08:20:30.463Z,10420.00
2018-05-23T08:21:30.699Z,10568.00
2018-05-23T08:22:30.934Z,10644.00
2018-05-23T08:23:31.168Z,10728.00
2018-05-23T08:24:31.427Z,10660.00
2018-05-23T08:25:31.641Z,10824.00
2018-05-23T08:26:31.875Z,10924.00
2018-05-23T08:27:32.110Z,11040.00
2018-05-23T08:28:32.348Z,11240.00
2018-05-23T08:29:32.582Z,11564.00
2018-05-23T08:30:32.817Z,11728.00
2018-05-23T08:31:33.052Z,11872.00
2018-05-23T08:32:33.285Z,12060.00
2018-05-23T08:33:33.520Z,12200.00
2018-05-23T08:34:33.755Z,12376.00
2018-05-23T08:35:33.990Z,12576.00
2018-05-23T08:36:34.222Z,12676.00
2018-05-23T08:37:34.446Z,12556.00
2018-05-23T08:38:34.684Z,12380.00
2018-05-23T08:39:34.925Z,12708.00
2018-05-23T08:40:35.164Z,13124.00
2018-05-23T08:41:35.396Z,13272.00
2018-05-23T08:42:35.635Z,13324.00
2018-05-23T08:43:35.880Z,13480.00
2018-05-23T08:44:36.106Z,14024.00
2018-05-23T08:45:36.336Z,14316.00
2018-05-23T08:46:36.570Z,15136.00
2018-05-23T08:47:36.804Z,15072.00
2018-05-23T08:48:37.040Z,15200.00
2018-05-23T08:49:37.276Z,15328.00
2018-05-23T08:50:37.493Z,14824.00
2018-05-23T08:51:37.751Z,14708.00
2018-05-23T08:52:37.986Z,14760.00
2018-05-23T08:53:38.217Z,14632.00
2018-05-23T08:54:38.461Z,14668.00
2018-05-23T08:55:38.699Z,14692.00
2018-05-23T08:56:38.924Z,14448.00
2018-05-23T08:57:39.168Z,14244.00
2018-05-23T08:58:39.397Z,13700.00
2018-05-23T08:59:39.631Z,13532.00
2018-05-23T09:00:39.863Z,12900.00
2018-05-23T09:01:40.101Z,12408.00
2018-05-23T09:02:40.337Z,12024.00
2018-05-23T09:03:40.576Z,11768.00
2018-05-23T09:04:40.864Z,11448.00
2018-05-23T09:05:41.045Z,11432.00
2018-05-23T09:06:41.281Z,11060.00
2018-05-23T09:07:41.517Z,10500.00
2018-05-23T09:08:41.760Z,10304.00
2018-05-23T09:09:41.989Z,10296.00
2018-05-23T09:10:42.231Z,10180.00
2018-05-23T09:11:42.460Z,10008.00
2018-05-23T09:12:42.702Z,9904.00
2018-05-23T09:13:42.934Z,10208.00
2018-05-23T09:14:43.172Z,10120.00
2018-05-23T09:15:43.398Z,10228.00
2018-05-23T09:16:43.633Z,10444.00
2018-05-23T09:17:43.893Z,10380.00
2018-05-23T09:18:44.114Z,10480.00
2018-05-23T09:19:44.340Z,10716.00
2018-05-23T09:20:44.576Z,10772.00
2018-05-23T09:21:44.809Z,10904.00
2018-05-23T09:22:45.057Z,10952.00
2018-05-23T09:23:45.293Z,11120.00
2018-05-23T09:24:45.515Z,11384.00
2018-05-23T09:25:45.754Z,11940.00
2018-05-23T09:26:45.982Z,12108.00
2018-05-23T09:27:46.217Z,11972.00
2018-05-23T09:28:46.455Z,11800.00
2018-05-23T09:29:46.692Z,11980.00
2018-05-23T09:30:46.928Z,12852.00
2018-05-23T09:31:47.166Z,13060.00
2018-05-23T09:32:47.399Z,12584.00
2018-05-23T09:33:47.632Z,11908.00
2018-05-23T09:34:47.870Z,11688.00
2018-05-23T09:35:48.115Z,11704.00
2018-05-23T09:36:48.333Z,11692.00
2018-05-23T09:37:48.576Z,11592.00
2018-05-23T09:38:48.817Z,11560.00
2018-05-23T09:39:49.066Z,11520.00
2018-05-23T09:40:49.287Z,11456.00
2018-05-23T09:41:49.523Z,11412.00
2018-05-23T09:42:49.759Z,11380.00
2018-05-23T09:43:50.004Z,11340.00
2018-05-23T09:44:50.231Z,11292.00
2018-05-23T09:45:50.477Z,11248.00
2018-05-23T09:46:50.697Z,11196.00
2018-05-23T09:47:50.934Z,11144.00
2018-05-23T09:48:51.169Z,11108.00
2018-05-23T09:49:51.401Z,11064.00
2018-05-23T09:50:51.638Z,11084.00
2018-05-23T09:51:51.876Z,11232.00
2018-05-23T09:52:52.125Z,11236.00
2018-05-23T09:53:52.343Z,11168.00
2018-05-23T09:54:52.580Z,11324.00
2018-05-23T09:55:52.816Z,11368.00
2018-05-23T09:56:53.050Z,11304.00
2018-05-23T09:57:53.288Z,11252.00
2018-05-23T09:58:53.537Z,11300.00
2018-05-23T09:59:53.761Z,11316.00
2018-05-23T10:00:54.001Z,11448.00
2018-05-23T10:01:54.235Z,11512.00
2018-05-23T10:02:54.470Z,11540.00
2018-05-23T10:03:54.702Z,11552.00
2018-05-23T10:04:54.942Z,12036.00
2018-05-23T10:05:55.175Z,11980.00
2018-05-23T10:06:55.411Z,11968.00
2018-05-23T10:07:55.647Z,11976.00
2018-05-23T10:08:55.887Z,11992.00
2018-05-23T10:09:56.119Z,12184.00
2018-05-23T10:10:56.363Z,12088.00
2018-05-23T10:11:56.599Z,12164.00
2018-05-23T10:12:56.834Z,11864.00
2018-05-23T10:13:57.067Z,11700.00
2018-05-23T10:14:57.293Z,11780.00
2018-05-23T10:15:57.527Z,11616.00
2018-05-23T10:16:57.762Z,11852.00
2018-05-23T10:17:57.996Z,12156.00
2018-05-23T10:18:58.234Z,12364.00
2018-05-23T10:19:58.477Z,12652.00
2018-05-23T10:20:58.695Z,13064.00
2018-05-23T10:21:58.936Z,13252.00
2018-05-23T10:22:59.176Z,13388.00
2018-05-23T10:23:59.405Z,13204.00
2018-05-23T10:24:59.640Z,12904.00
2018-05-23T10:25:59.880Z,12980.00
2018-05-23T10:27:00.111Z,13032.00
2018-05-23T10:28:00.368Z,12804.00
2018-05-23T10:29:00.591Z,12692.00
2018-05-23T10:30:00.827Z,12616.00
2018-05-23T10:31:01.060Z,12436.00
2018-05-23T10:32:01.292Z,11972.00
2018-05-23T10:33:01.525Z,11684.00
2018-05-23T10:34:01.767Z,11572.00
2018-05-23T10:35:02.006Z,11480.00
2018-05-23T10:36:02.239Z,11552.00
2018-05-23T10:37:02.482Z,11648.00
2018-05-23T10:38:02.721Z,11576.00
2018-05-23T10:39:03.018Z,11496.00
2018-05-23T10:40:03.177Z,11472.00
2018-05-23T10:41:03.434Z,11360.00
2018-05-23T10:42:03.670Z,11344.00
2018-05-23T10:43:03.905Z,11372.00
2018-05-23T10:44:04.135Z,11392.00
2018-05-23T10:45:04.375Z,11492.00
2018-05-23T10:46:04.615Z,11564.00
2018-05-23T10:47:04.854Z,11440.00
2018-05-23T10:48:05.090Z,11444.00
2018-05-23T10:49:05.326Z,11732.00
2018-05-23T10:50:05.560Z,12168.00
2018-05-23T10:51:05.798Z,12360.00
2018-05-23T10:52:06.102Z,12100.00
2018-05-23T10:53:06.270Z,12180.00
2018-05-23T10:54:06.509Z,12352.00
2018-05-23T10:55:06.754Z,12556.00
2018-05-23T10:56:06.979Z,12144.00
2018-05-23T10:57:07.288Z,13092.00
2018-05-23T10:58:07.457Z,13488.00
2018-05-23T10:59:07.704Z,13664.00
2018-05-23T11:00:07.932Z,13720.00
2018-05-23T11:01:08.164Z,13640.00
2018-05-23T11:02:08.396Z,13664.00
2018-05-23T11:03:08.640Z,13968.00
2018-05-23T11:04:08.871Z,13824.00
2018-05-23T11:05:09.115Z,14196.00
2018-05-23T11:06:09.343Z,14236.00
2018-05-23T11:07:09.563Z,14212.00
2018-05-23T11:08:09.802Z,14240.00
2018-05-23T11:09:10.035Z,14224.00
2018-05-23T11:10:10.272Z,14220.00
2018-05-23T11:11:10.515Z,14236.00
2018-05-23T11:12:10.754Z,14256.00
2018-05-23T11:13:10.987Z,14224.00
2018-05-23T11:14:11.224Z,14228.00
2018-05-23T11:15:11.519Z,14216.00
2018-05-23T11:16:11.699Z,14084.00
2018-05-23T11:17:11.936Z,14072.00
2018-05-23T11:18:12.168Z,14132.00
2018-05-23T11:19:12.407Z,14140.00
2018-05-23T11:20:12.641Z,14276.00
2018-05-23T11:21:12.882Z,14236.00
2018-05-23T11:22:13.123Z,14292.00
2018-05-23T11:23:13.360Z,14224.00
2018-05-23T11:24:13.594Z,14156.00
2018-05-23T11:25:13.835Z,14028.00
2018-05-23T11:26:14.073Z,13972.00
2018-05-23T11:27:14.309Z,13828.00
2018-05-23T11:28:14.546Z,13684.00
2018-05-23T11:29:14.789Z,13516.00
2018-05-23T11:30:15.024Z,13420.00
2018-05-23T11:31:15.266Z,13296.00
2018-05-23T11:32:15.500Z,13348.00
2018-05-23T11:33:15.736Z,13264.00
2018-05-23T11:34:15.975Z,13152.00
2018-05-23T11:35:16.211Z,13084.00
2018-05-23T11:36:16.449Z,12992.00
2018-05-23T11:37:16.687Z,12880.00
2018-05-23T11:38:16.925Z,12728.00
2018-05-23T11:39:17.161Z,12548.00
2018-05-23T11:40:17.394Z,12512.00
2018-05-23T11:41:17.652Z,12400.00
2018-05-23T11:42:17.864Z,12276.00
2018-05-23T11:43:18.104Z,12140.00
2018-05-23T11:44:18.342Z,12076.00
2018-05-23T11:45:18.581Z,11988.00
2018-05-23T11:46:18.821Z,11928.00
2018-05-23T11:47:19.056Z,11912.00
2018-05-23T11:48:19.292Z,11808.00
2018-05-23T11:49:19.530Z,11684.00
2018-05-23T11:50:21.294Z,11592.00
2018-05-23T11:51:20.028Z,11464.00
2018-05-23T11:52:20.268Z,11356.00
2018-05-23T11:53:20.512Z,11316.00
2018-05-23T11:54:20.751Z,11284.00
2018-05-23T11:55:20.987Z,11200.00
2018-05-23T11:56:21.233Z,11112.00
2018-05-23T11:57:21.473Z,11044.00
2018-05-23T11:58:21.711Z,10944.00
2018-05-23T11:59:21.946Z,10832.00
2018-05-23T12:00:22.185Z,10800.00
2018-05-23T12:01:22.420Z,10616.00
2018-05-23T12:02:22.661Z,10536.00
2018-05-23T12:03:22.897Z,10520.00
2018-05-23T12:04:23.148Z,10544.00
2018-05-23T12:05:23.392Z,10516.00
2018-05-23T12:06:23.609Z,10536.00
2018-05-23T12:07:23.848Z,10436.00
2018-05-23T12:08:24.080Z,10384.00
2018-05-23T12:09:24.314Z,10372.00
2018-05-23T12:10:24.620Z,10324.00
2018-05-23T12:11:24.791Z,10200.00
2018-05-23T12:12:25.038Z,10168.00
2018-05-23T12:13:25.283Z,10060.00
2018-05-23T12:14:25.509Z,10096.00
2018-05-23T12:15:25.748Z,10140.00
2018-05-23T12:16:25.989Z,10200.00
2018-05-23T12:17:26.229Z,10288.00